sensor_id;sensor_type;location;lat;lon;timestamp;P1;durP1;ratioP1;P2;durP2;ratioP2
28605;SDS011;46498;49.968;7.754;2023-03-01T00:01:26;16.05;;;8.27;;
28605;SDS011;46498;49.968;7.754;2023-03-01T00:06:28;22.17;;;9.23;;
28605;SDS011;46498;49.968;7.754;2023-03-01T00:11:30;17.75;;;8.20;;
28605;SDS011;46498;49.968;7.754;2023-03-01T00:16:34;21.10;;;7.72;;
28605;SDS011;46498;49.968;7.754;2023-03-01T00:21:39;18.83;;;8.85;;
28605;SDS011;46498;49.968;7.754;2023-03-01T00:26:40;27.77;;;9.55;;
28605;SDS011;46498;49.968;7.754;2023-03-01T00:31:41;20.25;;;9.35;;
28605;SDS011;46498;49.968;7.754;2023-03-01T00:36:42;20.25;;;9.13;;
28605;SDS011;46498;49.968;7.754;2023-03-01T00:41:42;23.73;;;9.77;;
28605;SDS011;46498;49.968;7.754;2023-03-01T00:46:43;20.08;;;9.15;;
28605;SDS011;46498;49.968;7.754;2023-03-01T00:51:44;21.75;;;9.45;;
28605;SDS011;46498;49.968;7.754;2023-03-01T00:56:45;20.70;;;9.05;;
28605;SDS011;46498;49.968;7.754;2023-03-01T01:01:46;17.40;;;8.63;;
28605;SDS011;46498;49.968;7.754;2023-03-01T01:06:47;20.25;;;9.73;;
28605;SDS011;46498;49.968;7.754;2023-03-01T01:11:48;20.77;;;9.48;;
28605;SDS011;46498;49.968;7.754;2023-03-01T01:21:52;22.02;;;9.73;;
28605;SDS011;46498;49.968;7.754;2023-03-01T01:26:53;24.52;;;10.05;;
28605;SDS011;46498;49.968;7.754;2023-03-01T01:31:53;24.42;;;9.82;;
28605;SDS011;46498;49.968;7.754;2023-03-01T01:36:54;23.02;;;10.45;;
28605;SDS011;46498;49.968;7.754;2023-03-01T01:41:55;23.17;;;10.45;;
28605;SDS011;46498;49.968;7.754;2023-03-01T01:47:06;26.98;;;10.57;;
28605;SDS011;46498;49.968;7.754;2023-03-01T01:52:18;23.12;;;10.05;;
28605;SDS011;46498;49.968;7.754;2023-03-01T01:57:26;21.95;;;10.25;;
28605;SDS011;46498;49.968;7.754;2023-03-01T02:02:33;27.60;;;11.52;;
28605;SDS011;46498;49.968;7.754;2023-03-01T02:07:34;25.20;;;10.55;;
28605;SDS011;46498;49.968;7.754;2023-03-01T02:12:35;23.85;;;10.70;;
28605;SDS011;46498;49.968;7.754;2023-03-01T02:17:37;25.33;;;11.00;;
28605;SDS011;46498;49.968;7.754;2023-03-01T02:22:38;26.55;;;11.63;;
28605;SDS011;46498;49.968;7.754;2023-03-01T02:28:24;25.02;;;11.52;;
28605;SDS011;46498;49.968;7.754;2023-03-01T02:33:32;24.05;;;10.80;;
28605;SDS011;46498;49.968;7.754;2023-03-01T02:38:36;22.65;;;11.60;;
28605;SDS011;46498;49.968;7.754;2023-03-01T02:43:37;23.38;;;10.68;;
28605;SDS011;46498;49.968;7.754;2023-03-01T02:48:45;23.25;;;10.45;;
28605;SDS011;46498;49.968;7.754;2023-03-01T03:02:23;26.27;;;11.18;;
28605;SDS011;46498;49.968;7.754;2023-03-01T03:07:50;25.73;;;12.70;;
28605;SDS011;46498;49.968;7.754;2023-03-01T03:12:53;25.80;;;11.57;;
28605;SDS011;46498;49.968;7.754;2023-03-01T03:17:59;26.70;;;11.55;;
28605;SDS011;46498;49.968;7.754;2023-03-01T03:23:00;25.02;;;11.98;;
28605;SDS011;46498;49.968;7.754;2023-03-01T03:28:01;27.30;;;11.70;;
28605;SDS011;46498;49.968;7.754;2023-03-01T03:33:03;24.92;;;10.95;;
28605;SDS011;46498;49.968;7.754;2023-03-01T03:38:05;27.37;;;12.27;;
28605;SDS011;46498;49.968;7.754;2023-03-01T03:43:10;26.70;;;11.60;;
28605;SDS011;46498;49.968;7.754;2023-03-01T03:48:22;27.48;;;12.40;;
28605;SDS011;46498;49.968;7.754;2023-03-01T03:53:25;30.80;;;12.45;;
28605;SDS011;46498;49.968;7.754;2023-03-01T03:58:27;31.25;;;13.05;;
28605;SDS011;46498;49.968;7.754;2023-03-01T04:03:28;31.23;;;12.20;;
28605;SDS011;46498;49.968;7.754;2023-03-01T04:08:30;30.40;;;13.27;;
28605;SDS011;46498;49.968;7.754;2023-03-01T04:13:31;25.17;;;12.18;;
28605;SDS011;46498;49.968;7.754;2023-03-01T04:18:32;29.12;;;12.25;;
28605;SDS011;46498;49.968;7.754;2023-03-01T04:23:33;29.27;;;13.07;;
28605;SDS011;46498;49.968;7.754;2023-03-01T04:28:38;25.60;;;11.52;;
28605;SDS011;46498;49.968;7.754;2023-03-01T04:33:44;29.98;;;11.82;;
28605;SDS011;46498;49.968;7.754;2023-03-01T04:38:56;29.85;;;13.65;;
28605;SDS011;46498;49.968;7.754;2023-03-01T04:43:57;30.60;;;12.82;;
28605;SDS011;46498;49.968;7.754;2023-03-01T04:54:01;27.67;;;12.65;;
28605;SDS011;46498;49.968;7.754;2023-03-01T04:59:02;28.48;;;12.63;;
28605;SDS011;46498;49.968;7.754;2023-03-01T05:04:06;33.90;;;13.07;;
28605;SDS011;46498;49.968;7.754;2023-03-01T05:09:07;35.75;;;15.25;;
28605;SDS011;46498;49.968;7.754;2023-03-01T05:14:08;33.05;;;13.70;;
28605;SDS011;46498;49.968;7.754;2023-03-01T05:19:09;33.70;;;14.05;;
28605;SDS011;46498;49.968;7.754;2023-03-01T05:24:15;30.12;;;13.20;;
28605;SDS011;46498;49.968;7.754;2023-03-01T05:29:18;33.35;;;14.60;;
28605;SDS011;46498;49.968;7.754;2023-03-01T05:34:27;34.83;;;13.73;;
28605;SDS011;46498;49.968;7.754;2023-03-01T05:39:29;33.25;;;14.13;;
28605;SDS011;46498;49.968;7.754;2023-03-01T05:44:31;29.17;;;12.95;;
28605;SDS011;46498;49.968;7.754;2023-03-01T05:49:32;36.03;;;14.02;;
28605;SDS011;46498;49.968;7.754;2023-03-01T05:54:33;32.40;;;14.32;;
28605;SDS011;46498;49.968;7.754;2023-03-01T05:59:34;33.88;;;14.30;;
28605;SDS011;46498;49.968;7.754;2023-03-01T06:04:35;33.53;;;13.75;;
28605;SDS011;46498;49.968;7.754;2023-03-01T06:09:36;35.08;;;14.02;;
28605;SDS011;46498;49.968;7.754;2023-03-01T06:14:37;30.48;;;14.00;;
28605;SDS011;46498;49.968;7.754;2023-03-01T06:19:38;35.72;;;13.77;;
28605;SDS011;46498;49.968;7.754;2023-03-01T06:24:39;29.83;;;13.80;;
28605;SDS011;46498;49.968;7.754;2023-03-01T06:29:39;35.15;;;14.35;;
28605;SDS011;46498;49.968;7.754;2023-03-01T06:34:42;32.28;;;13.70;;
28605;SDS011;46498;49.968;7.754;2023-03-01T06:39:43;36.78;;;14.05;;
28605;SDS011;46498;49.968;7.754;2023-03-01T06:44:44;33.30;;;13.93;;
28605;SDS011;46498;49.968;7.754;2023-03-01T06:49:46;35.53;;;13.95;;
28605;SDS011;46498;49.968;7.754;2023-03-01T06:54:47;35.80;;;13.82;;
28605;SDS011;46498;49.968;7.754;2023-03-01T06:59:47;32.10;;;13.43;;
28605;SDS011;46498;49.968;7.754;2023-03-01T07:04:49;32.67;;;13.65;;
28605;SDS011;46498;49.968;7.754;2023-03-01T07:09:51;31.90;;;13.50;;
28605;SDS011;46498;49.968;7.754;2023-03-01T07:14:51;27.73;;;12.95;;
28605;SDS011;46498;49.968;7.754;2023-03-01T07:19:52;27.60;;;12.88;;
28605;SDS011;46498;49.968;7.754;2023-03-01T07:24:53;36.92;;;13.05;;
28605;SDS011;46498;49.968;7.754;2023-03-01T07:29:54;28.12;;;12.43;;
28605;SDS011;46498;49.968;7.754;2023-03-01T07:34:55;29.00;;;13.38;;
28605;SDS011;46498;49.968;7.754;2023-03-01T07:39:56;26.00;;;12.20;;
28605;SDS011;46498;49.968;7.754;2023-03-01T07:44:57;27.25;;;12.50;;
28605;SDS011;46498;49.968;7.754;2023-03-01T07:49:58;30.12;;;12.88;;
28605;SDS011;46498;49.968;7.754;2023-03-01T07:54:58;34.97;;;13.10;;
28605;SDS011;46498;49.968;7.754;2023-03-01T07:59:59;30.95;;;13.00;;
28605;SDS011;46498;49.968;7.754;2023-03-01T08:05:00;33.92;;;13.73;;
28605;SDS011;46498;49.968;7.754;2023-03-01T08:10:01;29.25;;;13.65;;
28605;SDS011;46498;49.968;7.754;2023-03-01T08:15:03;34.00;;;13.25;;
28605;SDS011;46498;49.968;7.754;2023-03-01T08:20:05;25.52;;;13.23;;
28605;SDS011;46498;49.968;7.754;2023-03-01T08:25:07;32.87;;;12.67;;
28605;SDS011;46498;49.968;7.754;2023-03-01T08:30:09;26.85;;;12.60;;
28605;SDS011;46498;49.968;7.754;2023-03-01T08:35:11;38.47;;;13.97;;
28605;SDS011;46498;49.968;7.754;2023-03-01T08:40:12;31.65;;;13.23;;
28605;SDS011;46498;49.968;7.754;2023-03-01T08:45:14;29.95;;;13.05;;
28605;SDS011;46498;49.968;7.754;2023-03-01T08:50:18;31.08;;;14.23;;
28605;SDS011;46498;49.968;7.754;2023-03-01T08:55:19;32.15;;;14.60;;
28605;SDS011;46498;49.968;7.754;2023-03-01T09:00:20;35.03;;;14.05;;
28605;SDS011;46498;49.968;7.754;2023-03-01T09:05:21;27.17;;;13.15;;
28605;SDS011;46498;49.968;7.754;2023-03-01T09:10:22;36.08;;;14.27;;
28605;SDS011;46498;49.968;7.754;2023-03-01T09:15:23;29.17;;;14.10;;
28605;SDS011;46498;49.968;7.754;2023-03-01T09:20:24;30.65;;;13.52;;
28605;SDS011;46498;49.968;7.754;2023-03-01T09:25:25;35.85;;;14.07;;
28605;SDS011;46498;49.968;7.754;2023-03-01T09:30:26;29.80;;;14.15;;
28605;SDS011;46498;49.968;7.754;2023-03-01T09:35:27;31.27;;;13.85;;
28605;SDS011;46498;49.968;7.754;2023-03-01T09:40:28;27.05;;;13.50;;
28605;SDS011;46498;49.968;7.754;2023-03-01T09:45:33;32.30;;;13.93;;
28605;SDS011;46498;49.968;7.754;2023-03-01T09:50:39;31.92;;;14.93;;
28605;SDS011;46498;49.968;7.754;2023-03-01T09:56:00;31.10;;;14.00;;
28605;SDS011;46498;49.968;7.754;2023-03-01T10:01:27;29.95;;;13.77;;
28605;SDS011;46498;49.968;7.754;2023-03-01T10:06:35;29.63;;;13.95;;
28605;SDS011;46498;49.968;7.754;2023-03-01T10:11:37;30.25;;;14.68;;
28605;SDS011;46498;49.968;7.754;2023-03-01T10:16:51;30.77;;;14.63;;
28605;SDS011;46498;49.968;7.754;2023-03-01T10:22:00;31.67;;;15.40;;
28605;SDS011;46498;49.968;7.754;2023-03-01T10:27:09;33.50;;;14.55;;
28605;SDS011;46498;49.968;7.754;2023-03-01T10:32:18;34.67;;;16.00;;
28605;SDS011;46498;49.968;7.754;2023-03-01T10:37:19;31.25;;;15.45;;
28605;SDS011;46498;49.968;7.754;2023-03-01T10:42:27;34.33;;;16.37;;
28605;SDS011;46498;49.968;7.754;2023-03-01T10:48:02;30.37;;;14.52;;
28605;SDS011;46498;49.968;7.754;2023-03-01T10:53:21;32.47;;;14.18;;
28605;SDS011;46498;49.968;7.754;2023-03-01T10:58:25;30.17;;;15.18;;
28605;SDS011;46498;49.968;7.754;2023-03-01T11:03:28;29.08;;;14.75;;
28605;SDS011;46498;49.968;7.754;2023-03-01T11:08:43;30.17;;;14.77;;
28605;SDS011;46498;49.968;7.754;2023-03-01T11:13:56;33.00;;;14.52;;
28605;SDS011;46498;49.968;7.754;2023-03-01T11:25:37;26.42;;;13.38;;
28605;SDS011;46498;49.968;7.754;2023-03-01T11:44:26;27.35;;;14.18;;
28605;SDS011;46498;49.968;7.754;2023-03-01T11:49:41;28.05;;;13.60;;
28605;SDS011;46498;49.968;7.754;2023-03-01T12:02:00;27.20;;;13.73;;
28605;SDS011;46498;49.968;7.754;2023-03-01T12:07:29;26.17;;;13.62;;
28605;SDS011;46498;49.968;7.754;2023-03-01T12:22:28;22.77;;;12.33;;
28605;SDS011;46498;49.968;7.754;2023-03-01T12:27:36;24.23;;;13.02;;
28605;SDS011;46498;49.968;7.754;2023-03-01T12:44:29;21.37;;;11.68;;
28605;SDS011;46498;49.968;7.754;2023-03-01T12:51:08;20.10;;;11.27;;
28605;SDS011;46498;49.968;7.754;2023-03-01T12:56:13;23.42;;;11.90;;
28605;SDS011;46498;49.968;7.754;2023-03-01T13:06:55;24.35;;;13.15;;
28605;SDS011;46498;49.968;7.754;2023-03-01T13:12:41;25.12;;;12.65;;
28605;SDS011;46498;49.968;7.754;2023-03-01T13:17:48;24.35;;;13.25;;
28605;SDS011;46498;49.968;7.754;2023-03-01T13:22:59;21.90;;;11.57;;
28605;SDS011;46498;49.968;7.754;2023-03-01T13:46:51;23.05;;;11.15;;
28605;SDS011;46498;49.968;7.754;2023-03-01T13:51:54;20.92;;;10.80;;
28605;SDS011;46498;49.968;7.754;2023-03-01T13:56:55;27.02;;;11.30;;
28605;SDS011;46498;49.968;7.754;2023-03-01T14:07:18;19.02;;;10.38;;
28605;SDS011;46498;49.968;7.754;2023-03-01T14:12:39;19.80;;;10.68;;
28605;SDS011;46498;49.968;7.754;2023-03-01T14:18:29;22.62;;;10.45;;
28605;SDS011;46498;49.968;7.754;2023-03-01T14:23:39;20.60;;;10.80;;
28605;SDS011;46498;49.968;7.754;2023-03-01T14:28:42;17.83;;;9.52;;
28605;SDS011;46498;49.968;7.754;2023-03-01T14:33:43;20.20;;;10.55;;
28605;SDS011;46498;49.968;7.754;2023-03-01T14:38:55;20.65;;;10.35;;
28605;SDS011;46498;49.968;7.754;2023-03-01T14:44:06;15.90;;;8.55;;
28605;SDS011;46498;49.968;7.754;2023-03-01T14:49:17;17.83;;;9.75;;
28605;SDS011;46498;49.968;7.754;2023-03-01T14:54:25;19.15;;;9.18;;
28605;SDS011;46498;49.968;7.754;2023-03-01T15:00:00;18.35;;;8.85;;
28605;SDS011;46498;49.968;7.754;2023-03-01T15:05:06;19.50;;;9.68;;
28605;SDS011;46498;49.968;7.754;2023-03-01T15:10:17;20.25;;;9.35;;
28605;SDS011;46498;49.968;7.754;2023-03-01T15:15:32;16.33;;;8.75;;
28605;SDS011;46498;49.968;7.754;2023-03-01T15:20:38;15.10;;;8.68;;
28605;SDS011;46498;49.968;7.754;2023-03-01T15:25:43;16.27;;;8.98;;
28605;SDS011;46498;49.968;7.754;2023-03-01T15:30:45;20.60;;;9.60;;
28605;SDS011;46498;49.968;7.754;2023-03-01T15:35:54;18.02;;;8.75;;
28605;SDS011;46498;49.968;7.754;2023-03-01T15:40:58;18.98;;;8.52;;
28605;SDS011;46498;49.968;7.754;2023-03-01T15:46:00;18.98;;;9.15;;
28605;SDS011;46498;49.968;7.754;2023-03-01T15:51:01;17.33;;;9.40;;
28605;SDS011;46498;49.968;7.754;2023-03-01T15:56:03;18.70;;;9.57;;
28605;SDS011;46498;49.968;7.754;2023-03-01T16:01:10;17.55;;;8.82;;
28605;SDS011;46498;49.968;7.754;2023-03-01T16:06:15;15.93;;;8.48;;
28605;SDS011;46498;49.968;7.754;2023-03-01T16:11:17;15.57;;;8.15;;
28605;SDS011;46498;49.968;7.754;2023-03-01T16:16:19;15.50;;;7.80;;
28605;SDS011;46498;49.968;7.754;2023-03-01T16:21:22;15.13;;;8.20;;
28605;SDS011;46498;49.968;7.754;2023-03-01T16:26:25;18.67;;;7.62;;
28605;SDS011;46498;49.968;7.754;2023-03-01T16:31:26;17.37;;;8.63;;
28605;SDS011;46498;49.968;7.754;2023-03-01T16:36:28;19.08;;;8.45;;
28605;SDS011;46498;49.968;7.754;2023-03-01T16:41:28;15.68;;;8.07;;
28605;SDS011;46498;49.968;7.754;2023-03-01T16:46:30;15.25;;;7.87;;
28605;SDS011;46498;49.968;7.754;2023-03-01T16:51:31;17.95;;;8.27;;
28605;SDS011;46498;49.968;7.754;2023-03-01T16:56:35;17.62;;;8.05;;
28605;SDS011;46498;49.968;7.754;2023-03-01T17:01:38;14.38;;;7.47;;
28605;SDS011;46498;49.968;7.754;2023-03-01T17:06:41;18.02;;;8.02;;
28605;SDS011;46498;49.968;7.754;2023-03-01T17:11:42;18.60;;;7.65;;
28605;SDS011;46498;49.968;7.754;2023-03-01T17:16:43;17.20;;;7.82;;
28605;SDS011;46498;49.968;7.754;2023-03-01T17:21:45;15.00;;;7.65;;
28605;SDS011;46498;49.968;7.754;2023-03-01T17:26:46;18.42;;;8.35;;
28605;SDS011;46498;49.968;7.754;2023-03-01T17:31:47;18.25;;;7.10;;
28605;SDS011;46498;49.968;7.754;2023-03-01T17:36:48;20.62;;;8.43;;
28605;SDS011;46498;49.968;7.754;2023-03-01T17:41:51;22.27;;;8.02;;
28605;SDS011;46498;49.968;7.754;2023-03-01T17:46:52;16.10;;;7.37;;
28605;SDS011;46498;49.968;7.754;2023-03-01T17:51:53;17.75;;;7.35;;
28605;SDS011;46498;49.968;7.754;2023-03-01T17:56:54;18.80;;;7.82;;
28605;SDS011;46498;49.968;7.754;2023-03-01T18:01:56;15.60;;;7.60;;
28605;SDS011;46498;49.968;7.754;2023-03-01T18:07:01;18.08;;;7.47;;
28605;SDS011;46498;49.968;7.754;2023-03-01T18:12:02;17.42;;;7.10;;
28605;SDS011;46498;49.968;7.754;2023-03-01T18:17:03;20.60;;;7.30;;
28605;SDS011;46498;49.968;7.754;2023-03-01T18:22:11;20.48;;;7.03;;
28605;SDS011;46498;49.968;7.754;2023-03-01T18:27:12;14.95;;;7.35;;
28605;SDS011;46498;49.968;7.754;2023-03-01T18:32:14;15.60;;;7.53;;
28605;SDS011;46498;49.968;7.754;2023-03-01T18:37:15;17.35;;;7.20;;
28605;SDS011;46498;49.968;7.754;2023-03-01T18:42:17;15.30;;;6.90;;
28605;SDS011;46498;49.968;7.754;2023-03-01T18:47:20;18.05;;;7.12;;
28605;SDS011;46498;49.968;7.754;2023-03-01T18:52:20;15.82;;;7.55;;
28605;SDS011;46498;49.968;7.754;2023-03-01T18:57:21;16.65;;;6.65;;
28605;SDS011;46498;49.968;7.754;2023-03-01T19:02:22;16.25;;;6.85;;
28605;SDS011;46498;49.968;7.754;2023-03-01T19:07:23;21.00;;;7.43;;
28605;SDS011;46498;49.968;7.754;2023-03-01T19:12:25;15.68;;;7.60;;
28605;SDS011;46498;49.968;7.754;2023-03-01T19:17:27;19.15;;;7.60;;
28605;SDS011;46498;49.968;7.754;2023-03-01T19:22:30;16.25;;;7.65;;
28605;SDS011;46498;49.968;7.754;2023-03-01T19:27:31;21.12;;;8.00;;
28605;SDS011;46498;49.968;7.754;2023-03-01T19:32:32;17.15;;;7.70;;
28605;SDS011;46498;49.968;7.754;2023-03-01T19:37:33;16.37;;;8.05;;
28605;SDS011;46498;49.968;7.754;2023-03-01T19:42:34;17.15;;;7.32;;
28605;SDS011;46498;49.968;7.754;2023-03-01T19:47:35;19.62;;;8.00;;
28605;SDS011;46498;49.968;7.754;2023-03-01T19:52:36;14.60;;;7.15;;
28605;SDS011;46498;49.968;7.754;2023-03-01T19:57:37;16.23;;;7.37;;
28605;SDS011;46498;49.968;7.754;2023-03-01T20:02:38;22.25;;;9.00;;
28605;SDS011;46498;49.968;7.754;2023-03-01T20:07:39;19.20;;;8.57;;
28605;SDS011;46498;49.968;7.754;2023-03-01T20:12:40;20.05;;;8.35;;
28605;SDS011;46498;49.968;7.754;2023-03-01T20:17:41;17.77;;;8.45;;
28605;SDS011;46498;49.968;7.754;2023-03-01T20:22:41;20.08;;;9.15;;
28605;SDS011;46498;49.968;7.754;2023-03-01T20:27:43;21.37;;;8.82;;
28605;SDS011;46498;49.968;7.754;2023-03-01T20:32:46;22.02;;;8.98;;
28605;SDS011;46498;49.968;7.754;2023-03-01T20:37:49;19.58;;;9.55;;
28605;SDS011;46498;49.968;7.754;2023-03-01T20:42:52;25.92;;;9.85;;
28605;SDS011;46498;49.968;7.754;2023-03-01T20:47:53;20.85;;;9.93;;
28605;SDS011;46498;49.968;7.754;2023-03-01T20:52:54;19.48;;;9.13;;
28605;SDS011;46498;49.968;7.754;2023-03-01T20:57:55;21.20;;;9.48;;
28605;SDS011;46498;49.968;7.754;2023-03-01T21:02:57;22.85;;;9.82;;
28605;SDS011;46498;49.968;7.754;2023-03-01T21:07:58;21.55;;;9.82;;
28605;SDS011;46498;49.968;7.754;2023-03-01T21:13:02;27.20;;;10.85;;
28605;SDS011;46498;49.968;7.754;2023-03-01T21:18:03;22.37;;;9.30;;
28605;SDS011;46498;49.968;7.754;2023-03-01T21:23:03;24.08;;;10.80;;
28605;SDS011;46498;49.968;7.754;2023-03-01T21:28:04;23.87;;;10.60;;
28605;SDS011;46498;49.968;7.754;2023-03-01T21:33:05;22.08;;;10.20;;
28605;SDS011;46498;49.968;7.754;2023-03-01T21:38:06;22.75;;;9.90;;
28605;SDS011;46498;49.968;7.754;2023-03-01T21:43:06;19.23;;;9.23;;
28605;SDS011;46498;49.968;7.754;2023-03-01T21:48:07;19.42;;;9.55;;
28605;SDS011;46498;49.968;7.754;2023-03-01T21:53:08;23.73;;;10.57;;
28605;SDS011;46498;49.968;7.754;2023-03-01T21:58:09;26.55;;;10.77;;
28605;SDS011;46498;49.968;7.754;2023-03-01T22:03:10;22.23;;;9.77;;
28605;SDS011;46498;49.968;7.754;2023-03-01T22:08:11;22.92;;;10.18;;
28605;SDS011;46498;49.968;7.754;2023-03-01T22:13:12;23.12;;;9.55;;
28605;SDS011;46498;49.968;7.754;2023-03-01T22:18:12;22.83;;;9.80;;
28605;SDS011;46498;49.968;7.754;2023-03-01T22:23:13;23.02;;;9.70;;
28605;SDS011;46498;49.968;7.754;2023-03-01T22:28:14;21.50;;;10.27;;
28605;SDS011;46498;49.968;7.754;2023-03-01T22:33:15;21.77;;;9.32;;
28605;SDS011;46498;49.968;7.754;2023-03-01T22:38:16;22.58;;;9.93;;
28605;SDS011;46498;49.968;7.754;2023-03-01T22:43:17;23.92;;;11.30;;
28605;SDS011;46498;49.968;7.754;2023-03-01T22:48:17;24.42;;;9.85;;
28605;SDS011;46498;49.968;7.754;2023-03-01T22:53:18;24.98;;;10.90;;
28605;SDS011;46498;49.968;7.754;2023-03-01T22:58:19;24.92;;;11.18;;
28605;SDS011;46498;49.968;7.754;2023-03-01T23:03:20;24.15;;;10.63;;
28605;SDS011;46498;49.968;7.754;2023-03-01T23:08:21;29.58;;;10.38;;
28605;SDS011;46498;49.968;7.754;2023-03-01T23:13:22;29.30;;;11.25;;
28605;SDS011;46498;49.968;7.754;2023-03-01T23:18:23;24.10;;;10.93;;
28605;SDS011;46498;49.968;7.754;2023-03-01T23:23:24;26.05;;;11.12;;
28605;SDS011;46498;49.968;7.754;2023-03-01T23:28:25;24.85;;;11.43;;
28605;SDS011;46498;49.968;7.754;2023-03-01T23:33:27;32.10;;;11.80;;
28605;SDS011;46498;49.968;7.754;2023-03-01T23:38:29;27.92;;;11.98;;
28605;SDS011;46498;49.968;7.754;2023-03-01T23:43:29;30.83;;;12.48;;
28605;SDS011;46498;49.968;7.754;2023-03-01T23:48:32;25.70;;;11.80;;
28605;SDS011;46498;49.968;7.754;2023-03-01T23:53:35;27.70;;;12.05;;
28605;SDS011;46498;49.968;7.754;2023-03-01T23:58:39;33.83;;;12.45;;
